sensor_id;sensor_type;location;lat;lon;timestamp;pressure;altitude;pressure_sealevel;temperature;humidity
80137;BME280;69466;55.948;37.484;2023-08-06T00:01:57;99834.25;;;21.43;74.81
80137;BME280;69466;55.948;37.484;2023-08-06T00:04:23;99832.59;;;21.42;74.34
80137;BME280;69466;55.948;37.484;2023-08-06T00:06:49;99839.75;;;21.43;73.59
80137;BME280;69466;55.948;37.484;2023-08-06T00:09:15;99830.38;;;21.44;73.20
80137;BME280;69466;55.948;37.484;2023-08-06T00:11:40;99824.28;;;21.47;73.47
80137;BME280;69466;55.948;37.484;2023-08-06T00:14:09;99828.09;;;21.51;71.91
80137;BME280;69466;55.948;37.484;2023-08-06T00:16:35;99827.84;;;21.53;72.71
80137;BME280;69466;55.948;37.484;2023-08-06T00:19:01;99824.53;;;21.51;73.03
80137;BME280;69466;55.948;37.484;2023-08-06T00:21:28;99831.16;;;21.50;73.37
80137;BME280;69466;55.948;37.484;2023-08-06T00:23:53;99817.13;;;21.41;73.10
80137;BME280;69466;55.948;37.484;2023-08-06T00:26:19;99824.84;;;21.44;73.77
80137;BME280;69466;55.948;37.484;2023-08-06T00:28:45;99832.03;;;21.40;74.30
80137;BME280;69466;55.948;37.484;2023-08-06T00:31:11;99825.19;;;21.33;74.34
80137;BME280;69466;55.948;37.484;2023-08-06T00:33:37;99823.00;;;21.30;74.57
80137;BME280;69466;55.948;37.484;2023-08-06T00:36:03;99828.50;;;21.35;74.39
80137;BME280;69466;55.948;37.484;2023-08-06T00:38:29;99840.41;;;21.30;75.22
80137;BME280;69466;55.948;37.484;2023-08-06T00:40:55;99840.91;;;21.32;74.98
80137;BME280;69466;55.948;37.484;2023-08-06T00:43:21;99842.84;;;21.32;74.74
80137;BME280;69466;55.948;37.484;2023-08-06T00:45:47;99822.78;;;21.21;75.18
80137;BME280;69466;55.948;37.484;2023-08-06T00:48:13;99844.53;;;21.28;74.52
80137;BME280;69466;55.948;37.484;2023-08-06T00:50:39;99844.53;;;21.28;74.94
80137;BME280;69466;55.948;37.484;2023-08-06T00:53:06;99846.78;;;21.20;75.47
80137;BME280;69466;55.948;37.484;2023-08-06T00:55:33;99842.13;;;21.16;75.66
80137;BME280;69466;55.948;37.484;2023-08-06T00:57:59;99833.84;;;21.11;74.76
80137;BME280;69466;55.948;37.484;2023-08-06T01:00:25;99848.47;;;21.16;73.19
80137;BME280;69466;55.948;37.484;2023-08-06T01:02:53;99849.56;;;21.20;73.49
80137;BME280;69466;55.948;37.484;2023-08-06T01:05:21;99844.03;;;21.20;73.26
80137;BME280;69466;55.948;37.484;2023-08-06T01:13:23;99847.63;;;21.21;73.83
80137;BME280;69466;55.948;37.484;2023-08-06T01:15:56;99845.97;;;21.20;74.41
80137;BME280;69466;55.948;37.484;2023-08-06T01:18:25;99843.47;;;21.18;74.15
80137;BME280;69466;55.948;37.484;2023-08-06T01:20:51;99831.59;;;21.18;73.50
80137;BME280;69466;55.948;37.484;2023-08-06T01:23:18;99838.22;;;21.22;72.54
80137;BME280;69466;55.948;37.484;2023-08-06T01:28:59;99839.00;;;21.28;72.68
80137;BME280;69466;55.948;37.484;2023-08-06T01:31:30;99845.63;;;21.27;72.56
80137;BME280;69466;55.948;37.484;2023-08-06T01:33:59;99844.25;;;21.29;72.24
80137;BME280;69466;55.948;37.484;2023-08-06T01:36:26;99840.66;;;21.29;72.73
80137;BME280;69466;55.948;37.484;2023-08-06T01:38:54;99846.78;;;21.26;73.13
80137;BME280;69466;55.948;37.484;2023-08-06T01:41:20;99847.88;;;21.25;73.19
80137;BME280;69466;55.948;37.484;2023-08-06T01:43:45;99861.41;;;21.21;73.62
80137;BME280;69466;55.948;37.484;2023-08-06T01:46:11;99852.00;;;21.22;73.81
80137;BME280;69466;55.948;37.484;2023-08-06T01:48:37;99858.34;;;21.22;73.51
80137;BME280;69466;55.948;37.484;2023-08-06T01:51:06;99855.91;;;21.21;73.80
80137;BME280;69466;55.948;37.484;2023-08-06T01:53:33;99851.47;;;21.20;74.14
80137;BME280;69466;55.948;37.484;2023-08-06T01:55:59;99850.69;;;21.14;73.23
80137;BME280;69466;55.948;37.484;2023-08-06T01:58:25;99857.84;;;21.15;73.43
80137;BME280;69466;55.948;37.484;2023-08-06T02:00:51;99875.25;;;21.16;73.55
80137;BME280;69466;55.948;37.484;2023-08-06T02:03:16;99868.31;;;21.08;73.95
80137;BME280;69466;55.948;37.484;2023-08-06T02:05:42;99868.91;;;21.05;74.34
80137;BME280;69466;55.948;37.484;2023-08-06T02:08:08;99871.38;;;21.12;74.85
80137;BME280;69466;55.948;37.484;2023-08-06T02:10:35;99881.84;;;21.20;74.31
80137;BME280;69466;55.948;37.484;2023-08-06T02:13:01;99872.97;;;21.28;73.00
80137;BME280;69466;55.948;37.484;2023-08-06T02:15:27;99874.59;;;21.34;71.27
80137;BME280;69466;55.948;37.484;2023-08-06T02:17:53;99872.06;;;21.43;71.14
80137;BME280;69466;55.948;37.484;2023-08-06T02:20:39;99869.00;;;21.49;71.50
80137;BME280;69466;55.948;37.484;2023-08-06T02:23:05;99862.06;;;21.52;72.04
80137;BME280;69466;55.948;37.484;2023-08-06T02:25:31;99878.34;;;21.58;71.71
80137;BME280;69466;55.948;37.484;2023-08-06T02:27:59;99865.06;;;21.60;72.30
80137;BME280;69466;55.948;37.484;2023-08-06T02:30:25;99879.94;;;21.64;71.68
80137;BME280;69466;55.948;37.484;2023-08-06T02:32:51;99880.72;;;21.75;70.54
80137;BME280;69466;55.948;37.484;2023-08-06T02:35:17;99869.66;;;21.75;70.02
80137;BME280;69466;55.948;37.484;2023-08-06T02:37:43;99876.47;;;21.88;70.05
80137;BME280;69466;55.948;37.484;2023-08-06T02:40:09;99873.91;;;22.35;67.65
80137;BME280;69466;55.948;37.484;2023-08-06T02:42:35;99874.16;;;23.39;63.65
80137;BME280;69466;55.948;37.484;2023-08-06T02:45:02;99880.34;;;24.43;60.67
80137;BME280;69466;55.948;37.484;2023-08-06T02:47:31;99870.88;;;25.31;57.83
80137;BME280;69466;55.948;37.484;2023-08-06T02:49:57;99871.81;;;26.26;54.74
80137;BME280;69466;55.948;37.484;2023-08-06T02:52:24;99877.78;;;26.95;52.20
80137;BME280;69466;55.948;37.484;2023-08-06T02:54:50;99869.13;;;27.70;50.18
80137;BME280;69466;55.948;37.484;2023-08-06T02:57:16;99873.88;;;28.38;48.54
80137;BME280;69466;55.948;37.484;2023-08-06T02:59:42;99873.81;;;28.81;47.13
80137;BME280;69466;55.948;37.484;2023-08-06T03:02:14;99881.72;;;29.17;46.27
80137;BME280;69466;55.948;37.484;2023-08-06T03:04:57;99884.38;;;29.93;44.74
80137;BME280;69466;55.948;37.484;2023-08-06T03:07:29;99874.50;;;30.49;43.47
80137;BME280;69466;55.948;37.484;2023-08-06T03:10:03;99879.56;;;30.56;42.62
80137;BME280;69466;55.948;37.484;2023-08-06T03:12:30;99878.28;;;31.10;41.55
80137;BME280;69466;55.948;37.484;2023-08-06T03:14:57;99876.63;;;31.46;41.40
80137;BME280;69466;55.948;37.484;2023-08-06T03:17:23;99881.56;;;32.13;39.40
80137;BME280;69466;55.948;37.484;2023-08-06T03:19:49;99890.88;;;31.77;39.79
80137;BME280;69466;55.948;37.484;2023-08-06T03:22:15;99878.16;;;32.20;39.25
80137;BME280;69466;55.948;37.484;2023-08-06T03:24:41;99883.41;;;32.77;38.60
80137;BME280;69466;55.948;37.484;2023-08-06T03:27:08;99882.03;;;33.33;37.25
80137;BME280;69466;55.948;37.484;2023-08-06T03:29:36;99877.38;;;33.72;36.13
80137;BME280;69466;55.948;37.484;2023-08-06T03:32:02;99880.78;;;33.81;35.77
80137;BME280;69466;55.948;37.484;2023-08-06T03:34:28;99871.91;;;33.99;35.17
80137;BME280;69466;55.948;37.484;2023-08-06T03:36:54;99874.38;;;34.19;35.15
80137;BME280;69466;55.948;37.484;2023-08-06T03:39:20;99872.56;;;34.11;35.80
80137;BME280;69466;55.948;37.484;2023-08-06T03:41:46;99873.94;;;34.17;35.67
80137;BME280;69466;55.948;37.484;2023-08-06T03:44:12;99871.84;;;34.14;35.57
80137;BME280;69466;55.948;37.484;2023-08-06T03:46:38;99874.41;;;34.61;35.10
80137;BME280;69466;55.948;37.484;2023-08-06T03:49:06;99878.41;;;35.25;33.49
80137;BME280;69466;55.948;37.484;2023-08-06T03:51:31;99873.53;;;35.22;34.01
80137;BME280;69466;55.948;37.484;2023-08-06T03:53:57;99868.66;;;35.45;33.48
80137;BME280;69466;55.948;37.484;2023-08-06T03:56:23;99871.47;;;35.19;34.02
80137;BME280;69466;55.948;37.484;2023-08-06T03:58:49;99870.34;;;35.50;33.31
80137;BME280;69466;55.948;37.484;2023-08-06T04:01:15;99878.50;;;35.81;32.64
80137;BME280;69466;55.948;37.484;2023-08-06T04:03:45;99866.25;;;35.70;32.86
80137;BME280;69466;55.948;37.484;2023-08-06T04:06:12;99863.66;;;36.18;32.09
80137;BME280;69466;55.948;37.484;2023-08-06T04:08:41;99863.69;;;36.55;31.79
80137;BME280;69466;55.948;37.484;2023-08-06T04:11:07;99866.88;;;36.86;31.33
80137;BME280;69466;55.948;37.484;2023-08-06T04:13:33;99860.66;;;37.14;30.74
80137;BME280;69466;55.948;37.484;2023-08-06T04:16:03;99863.25;;;37.34;30.39
80137;BME280;69466;55.948;37.484;2023-08-06T04:18:29;99869.78;;;36.94;30.84
80137;BME280;69466;55.948;37.484;2023-08-06T04:20:55;99875.69;;;37.22;30.28
80137;BME280;69466;55.948;37.484;2023-08-06T04:23:23;99870.72;;;37.08;30.03
80137;BME280;69466;55.948;37.484;2023-08-06T04:25:56;99876.84;;;37.68;29.66
80137;BME280;69466;55.948;37.484;2023-08-06T04:28:24;99876.94;;;37.79;29.45
80137;BME280;69466;55.948;37.484;2023-08-06T04:30:50;99867.31;;;37.94;29.54
80137;BME280;69466;55.948;37.484;2023-08-06T04:33:17;99874.03;;;38.51;27.99
80137;BME280;69466;55.948;37.484;2023-08-06T04:35:44;99868.41;;;38.69;28.58
80137;BME280;69466;55.948;37.484;2023-08-06T04:38:10;99868.78;;;38.53;28.36
80137;BME280;69466;55.948;37.484;2023-08-06T04:40:36;99865.16;;;38.78;28.18
80137;BME280;69466;55.948;37.484;2023-08-06T04:43:03;99860.78;;;39.26;27.61
80137;BME280;69466;55.948;37.484;2023-08-06T04:45:32;99866.06;;;39.35;27.25
80137;BME280;69466;55.948;37.484;2023-08-06T04:47:58;99865.56;;;39.90;27.01
80137;BME280;69466;55.948;37.484;2023-08-06T04:50:24;99874.44;;;40.09;25.89
80137;BME280;69466;55.948;37.484;2023-08-06T04:52:49;99860.22;;;40.02;26.76
80137;BME280;69466;55.948;37.484;2023-08-06T04:55:15;99868.78;;;39.99;26.31
80137;BME280;69466;55.948;37.484;2023-08-06T04:57:41;99873.63;;;40.19;26.02
80137;BME280;69466;55.948;37.484;2023-08-06T05:00:07;99869.16;;;40.08;26.65
80137;BME280;69466;55.948;37.484;2023-08-06T05:02:33;99859.50;;;39.80;26.47
80137;BME280;69466;55.948;37.484;2023-08-06T05:05:00;99871.84;;;40.43;26.00
80137;BME280;69466;55.948;37.484;2023-08-06T05:07:26;99872.59;;;40.61;25.64
80137;BME280;69466;55.948;37.484;2023-08-06T05:09:52;99865.00;;;40.34;26.14
80137;BME280;69466;55.948;37.484;2023-08-06T05:12:17;99867.00;;;40.40;26.38
80137;BME280;69466;55.948;37.484;2023-08-06T05:14:43;99854.19;;;40.77;25.74
80137;BME280;69466;55.948;37.484;2023-08-06T05:17:09;99854.44;;;41.00;25.47
80137;BME280;69466;55.948;37.484;2023-08-06T05:19:35;99852.78;;;41.06;25.45
80137;BME280;69466;55.948;37.484;2023-08-06T05:22:01;99852.09;;;40.84;25.27
80137;BME280;69466;55.948;37.484;2023-08-06T05:24:27;99852.22;;;41.22;24.95
80137;BME280;69466;55.948;37.484;2023-08-06T05:26:53;99841.59;;;41.29;25.19
80137;BME280;69466;55.948;37.484;2023-08-06T05:29:19;99841.59;;;41.26;25.15
80137;BME280;69466;55.948;37.484;2023-08-06T05:31:45;99847.31;;;40.74;25.55
80137;BME280;69466;55.948;37.484;2023-08-06T05:34:11;99841.09;;;41.34;25.18
80137;BME280;69466;55.948;37.484;2023-08-06T05:36:37;99840.84;;;41.63;24.42
80137;BME280;69466;55.948;37.484;2023-08-06T05:39:03;99836.34;;;42.03;24.21
80137;BME280;69466;55.948;37.484;2023-08-06T05:41:29;99846.78;;;42.13;24.08
80137;BME280;69466;55.948;37.484;2023-08-06T05:43:55;99839.41;;;41.47;24.73
80137;BME280;69466;55.948;37.484;2023-08-06T05:46:21;99845.31;;;42.01;23.94
80137;BME280;69466;55.948;37.484;2023-08-06T05:48:47;99840.59;;;42.18;23.94
80137;BME280;69466;55.948;37.484;2023-08-06T05:51:14;99843.22;;;42.39;23.66
80137;BME280;69466;55.948;37.484;2023-08-06T05:53:41;99838.88;;;42.58;23.27
80137;BME280;69466;55.948;37.484;2023-08-06T05:56:07;99843.69;;;42.61;24.01
80137;BME280;69466;55.948;37.484;2023-08-06T05:58:33;99834.88;;;42.78;23.40
80137;BME280;69466;55.948;37.484;2023-08-06T06:01:00;99834.13;;;42.48;23.12
80137;BME280;69466;55.948;37.484;2023-08-06T06:03:26;99832.13;;;42.98;22.96
80137;BME280;69466;55.948;37.484;2023-08-06T06:05:52;99839.34;;;43.06;22.64
80137;BME280;69466;55.948;37.484;2023-08-06T06:08:18;99841.00;;;43.27;22.60
80137;BME280;69466;55.948;37.484;2023-08-06T06:10:44;99837.94;;;42.64;23.46
80137;BME280;69466;55.948;37.484;2023-08-06T06:13:10;99829.34;;;42.95;23.46
80137;BME280;69466;55.948;37.484;2023-08-06T06:15:35;99830.16;;;43.18;22.55
80137;BME280;69466;55.948;37.484;2023-08-06T06:18:01;99829.66;;;43.23;22.39
80137;BME280;69466;55.948;37.484;2023-08-06T06:20:27;99827.06;;;43.09;22.29
80137;BME280;69466;55.948;37.484;2023-08-06T06:22:53;99828.25;;;43.12;22.92
80137;BME280;69466;55.948;37.484;2023-08-06T06:25:19;99828.66;;;43.10;22.94
80137;BME280;69466;55.948;37.484;2023-08-06T06:27:44;99820.38;;;42.93;22.98
80137;BME280;69466;55.948;37.484;2023-08-06T06:30:10;99820.69;;;42.98;22.70
80137;BME280;69466;55.948;37.484;2023-08-06T06:32:37;99825.88;;;42.53;23.03
80137;BME280;69466;55.948;37.484;2023-08-06T06:35:03;99828.09;;;42.69;23.49
80137;BME280;69466;55.948;37.484;2023-08-06T06:37:29;99814.72;;;42.89;23.04
80137;BME280;69466;55.948;37.484;2023-08-06T06:39:55;99827.19;;;43.25;22.67
80137;BME280;69466;55.948;37.484;2023-08-06T06:42:21;99823.53;;;43.48;21.52
80137;BME280;69466;55.948;37.484;2023-08-06T06:44:50;99819.34;;;43.29;22.18
80137;BME280;69466;55.948;37.484;2023-08-06T06:47:16;99813.47;;;43.17;22.06
80137;BME280;69466;55.948;37.484;2023-08-06T06:49:42;99818.84;;;42.31;23.08
80137;BME280;69466;55.948;37.484;2023-08-06T06:52:08;99802.41;;;42.12;22.90
80137;BME280;69466;55.948;37.484;2023-08-06T06:54:33;99809.34;;;42.41;23.08
80137;BME280;69466;55.948;37.484;2023-08-06T06:56:59;99822.59;;;42.55;22.70
80137;BME280;69466;55.948;37.484;2023-08-06T06:59:25;99817.34;;;42.50;22.85
80137;BME280;69466;55.948;37.484;2023-08-06T07:01:51;99816.69;;;42.69;22.55
80137;BME280;69466;55.948;37.484;2023-08-06T07:04:17;99816.50;;;42.53;22.67
80137;BME280;69466;55.948;37.484;2023-08-06T07:06:42;99809.06;;;42.85;22.65
80137;BME280;69466;55.948;37.484;2023-08-06T07:09:08;99808.66;;;43.34;21.60
80137;BME280;69466;55.948;37.484;2023-08-06T07:11:34;99813.16;;;43.11;21.88
80137;BME280;69466;55.948;37.484;2023-08-06T07:14:00;99793.06;;;42.92;22.81
80137;BME280;69466;55.948;37.484;2023-08-06T07:16:26;99805.38;;;43.12;22.56
80137;BME280;69466;55.948;37.484;2023-08-06T07:18:53;99805.31;;;42.38;22.21
80137;BME280;69466;55.948;37.484;2023-08-06T07:21:20;99808.09;;;42.42;22.17
80137;BME280;69466;55.948;37.484;2023-08-06T07:23:46;99798.03;;;42.34;22.46
80137;BME280;69466;55.948;37.484;2023-08-06T07:26:11;99810.00;;;41.54;23.13
80137;BME280;69466;55.948;37.484;2023-08-06T07:28:37;99798.50;;;41.24;24.11
80137;BME280;69466;55.948;37.484;2023-08-06T07:31:03;99801.31;;;41.27;23.66
80137;BME280;69466;55.948;37.484;2023-08-06T07:33:29;99804.00;;;41.45;24.25
80137;BME280;69466;55.948;37.484;2023-08-06T07:35:55;99802.16;;;41.65;23.08
80137;BME280;69466;55.948;37.484;2023-08-06T07:38:21;99791.69;;;41.55;22.90
80137;BME280;69466;55.948;37.484;2023-08-06T07:40:47;99792.22;;;41.02;23.40
80137;BME280;69466;55.948;37.484;2023-08-06T07:43:13;99784.75;;;41.15;23.44
80137;BME280;69466;55.948;37.484;2023-08-06T07:45:39;99781.38;;;40.83;23.97
80137;BME280;69466;55.948;37.484;2023-08-06T07:48:05;99785.03;;;40.83;23.91
80137;BME280;69466;55.948;37.484;2023-08-06T07:50:32;99784.63;;;40.81;24.15
80137;BME280;69466;55.948;37.484;2023-08-06T07:52:58;99789.94;;;40.76;24.13
80137;BME280;69466;55.948;37.484;2023-08-06T07:55:24;99788.53;;;40.46;24.94
80137;BME280;69466;55.948;37.484;2023-08-06T07:57:50;99785.56;;;40.67;24.36
80137;BME280;69466;55.948;37.484;2023-08-06T08:00:16;99781.00;;;40.77;24.15
80137;BME280;69466;55.948;37.484;2023-08-06T08:02:42;99774.09;;;41.23;24.06
80137;BME280;69466;55.948;37.484;2023-08-06T08:05:08;99789.50;;;41.25;23.65
80137;BME280;69466;55.948;37.484;2023-08-06T08:07:34;99778.63;;;40.68;23.91
80137;BME280;69466;55.948;37.484;2023-08-06T08:10:00;99774.25;;;40.60;24.25
80137;BME280;69466;55.948;37.484;2023-08-06T08:12:26;99770.22;;;40.51;24.16
80137;BME280;69466;55.948;37.484;2023-08-06T08:14:52;99771.94;;;40.38;24.38
80137;BME280;69466;55.948;37.484;2023-08-06T08:17:18;99764.50;;;39.71;24.78
80137;BME280;69466;55.948;37.484;2023-08-06T08:19:44;99765.00;;;39.55;24.85
80137;BME280;69466;55.948;37.484;2023-08-06T08:22:10;99776.41;;;39.41;25.39
80137;BME280;69466;55.948;37.484;2023-08-06T08:24:36;99770.28;;;39.25;25.23
80137;BME280;69466;55.948;37.484;2023-08-06T08:27:02;99773.94;;;39.29;25.68
80137;BME280;69466;55.948;37.484;2023-08-06T08:29:27;99761.03;;;38.99;25.93
80137;BME280;69466;55.948;37.484;2023-08-06T08:31:53;99757.78;;;38.87;26.37
80137;BME280;69466;55.948;37.484;2023-08-06T08:34:19;99759.72;;;38.26;26.81
80137;BME280;69466;55.948;37.484;2023-08-06T08:36:45;99747.03;;;37.92;27.58
80137;BME280;69466;55.948;37.484;2023-08-06T08:39:15;99755.22;;;38.07;27.71
80137;BME280;69466;55.948;37.484;2023-08-06T08:41:42;99752.91;;;37.48;28.31
80137;BME280;69466;55.948;37.484;2023-08-06T08:44:09;99760.97;;;36.84;29.13
80137;BME280;69466;55.948;37.484;2023-08-06T08:46:37;99755.44;;;36.58;29.32
80137;BME280;69466;55.948;37.484;2023-08-06T08:49:04;99744.28;;;36.28;30.29
80137;BME280;69466;55.948;37.484;2023-08-06T08:51:30;99741.97;;;36.40;29.97
80137;BME280;69466;55.948;37.484;2023-08-06T08:53:57;99740.59;;;35.90;30.87
80137;BME280;69466;55.948;37.484;2023-08-06T08:56:24;99737.47;;;35.99;31.21
80137;BME280;69466;55.948;37.484;2023-08-06T08:58:50;99746.03;;;36.06;30.63
80137;BME280;69466;55.948;37.484;2023-08-06T09:01:24;99733.63;;;35.81;31.04
80137;BME280;69466;55.948;37.484;2023-08-06T09:03:51;99734.41;;;35.78;31.20
80137;BME280;69466;55.948;37.484;2023-08-06T09:06:18;99741.38;;;35.57;31.46
80137;BME280;69466;55.948;37.484;2023-08-06T09:09:01;99734.66;;;35.09;32.39
80137;BME280;69466;55.948;37.484;2023-08-06T09:11:38;99745.63;;;35.14;32.26
80137;BME280;69466;55.948;37.484;2023-08-06T09:14:06;99747.19;;;34.86;32.51
80137;BME280;69466;55.948;37.484;2023-08-06T09:16:37;99730.91;;;34.76;32.41
80137;BME280;69466;55.948;37.484;2023-08-06T09:19:10;99735.22;;;34.92;32.49
80137;BME280;69466;55.948;37.484;2023-08-06T09:21:40;99740.72;;;35.11;32.53
80137;BME280;69466;55.948;37.484;2023-08-06T09:24:11;99743.31;;;34.97;32.23
80137;BME280;69466;55.948;37.484;2023-08-06T09:26:38;99743.13;;;34.83;32.83
80137;BME280;69466;55.948;37.484;2023-08-06T09:29:05;99732.47;;;34.50;33.56
80137;BME280;69466;55.948;37.484;2023-08-06T09:31:42;99746.81;;;34.19;33.60
80137;BME280;69466;55.948;37.484;2023-08-06T09:36:48;99722.69;;;34.21;34.16
80137;BME280;69466;55.948;37.484;2023-08-06T09:39:15;99721.56;;;34.26;33.92
80137;BME280;69466;55.948;37.484;2023-08-06T09:41:42;99723.63;;;34.29;34.00
80137;BME280;69466;55.948;37.484;2023-08-06T09:44:17;99722.03;;;34.09;34.49
80137;BME280;69466;55.948;37.484;2023-08-06T09:46:57;99723.59;;;34.06;34.26
80137;BME280;69466;55.948;37.484;2023-08-06T09:49:41;99716.09;;;34.14;34.24
80137;BME280;69466;55.948;37.484;2023-08-06T09:52:14;99715.38;;;34.17;34.35
80137;BME280;69466;55.948;37.484;2023-08-06T09:54:43;99717.44;;;34.01;34.98
80137;BME280;69466;55.948;37.484;2023-08-06T09:57:09;99703.50;;;34.08;34.52
80137;BME280;69466;55.948;37.484;2023-08-06T09:59:38;99689.22;;;33.97;35.09
80137;BME280;69466;55.948;37.484;2023-08-06T10:02:12;99696.81;;;34.16;35.29
80137;BME280;69466;55.948;37.484;2023-08-06T10:04:38;99690.78;;;34.37;35.75
80137;BME280;69466;55.948;37.484;2023-08-06T10:07:04;99699.03;;;34.49;34.69
80137;BME280;69466;55.948;37.484;2023-08-06T10:09:30;99688.44;;;34.42;33.91
80137;BME280;69466;55.948;37.484;2023-08-06T10:11:57;99690.81;;;34.40;34.56
80137;BME280;69466;55.948;37.484;2023-08-06T10:14:27;99686.03;;;33.99;35.06
80137;BME280;69466;55.948;37.484;2023-08-06T10:16:57;99682.16;;;34.07;34.54
80137;BME280;69466;55.948;37.484;2023-08-06T10:19:23;99674.97;;;34.09;34.76
80137;BME280;69466;55.948;37.484;2023-08-06T10:22:12;99684.59;;;34.08;35.19
80137;BME280;69466;55.948;37.484;2023-08-06T10:24:54;99672.47;;;34.04;34.96
80137;BME280;69466;55.948;37.484;2023-08-06T10:27:21;99664.66;;;33.75;35.69
80137;BME280;69466;55.948;37.484;2023-08-06T10:29:48;99670.50;;;33.86;35.94
80137;BME280;69466;55.948;37.484;2023-08-06T10:32:16;99660.78;;;33.83;35.71
80137;BME280;69466;55.948;37.484;2023-08-06T10:34:57;99665.91;;;33.58;36.48
80137;BME280;69466;55.948;37.484;2023-08-06T10:37:44;99662.41;;;33.65;36.76
80137;BME280;69466;55.948;37.484;2023-08-06T10:40:10;99661.84;;;33.56;37.09
80137;BME280;69466;55.948;37.484;2023-08-06T10:42:36;99670.72;;;33.58;36.98
80137;BME280;69466;55.948;37.484;2023-08-06T10:45:12;99679.47;;;33.33;35.83
80137;BME280;69466;55.948;37.484;2023-08-06T10:47:42;99662.75;;;33.40;36.12
80137;BME280;69466;55.948;37.484;2023-08-06T10:50:14;99667.94;;;33.38;35.01
80137;BME280;69466;55.948;37.484;2023-08-06T10:52:43;99665.09;;;33.38;35.38
80137;BME280;69466;55.948;37.484;2023-08-06T10:55:10;99667.63;;;33.24;36.23
80137;BME280;69466;55.948;37.484;2023-08-06T10:57:36;99657.59;;;33.08;38.31
80137;BME280;69466;55.948;37.484;2023-08-06T11:00:06;99661.31;;;33.12;37.85
80137;BME280;69466;55.948;37.484;2023-08-06T11:02:34;99649.69;;;33.13;37.84
80137;BME280;69466;55.948;37.484;2023-08-06T11:05:08;99661.03;;;33.17;37.99
80137;BME280;69466;55.948;37.484;2023-08-06T11:07:35;99658.81;;;32.91;36.95
80137;BME280;69466;55.948;37.484;2023-08-06T11:10:12;99648.81;;;32.74;37.46
80137;BME280;69466;55.948;37.484;2023-08-06T11:12:39;99650.66;;;32.67;36.94
80137;BME280;69466;55.948;37.484;2023-08-06T11:15:05;99660.72;;;32.68;36.73
80137;BME280;69466;55.948;37.484;2023-08-06T11:17:33;99652.63;;;32.66;36.78
80137;BME280;69466;55.948;37.484;2023-08-06T11:20:02;99645.63;;;32.60;37.10
80137;BME280;69466;55.948;37.484;2023-08-06T11:22:31;99649.25;;;32.61;37.87
80137;BME280;69466;55.948;37.484;2023-08-06T11:24:57;99632.03;;;32.62;37.02
80137;BME280;69466;55.948;37.484;2023-08-06T11:27:26;99644.63;;;32.68;37.94
80137;BME280;69466;55.948;37.484;2023-08-06T11:29:52;99630.75;;;32.75;37.02
80137;BME280;69466;55.948;37.484;2023-08-06T11:32:18;99642.25;;;32.86;36.97
80137;BME280;69466;55.948;37.484;2023-08-06T11:34:44;99625.56;;;32.77;37.65
80137;BME280;69466;55.948;37.484;2023-08-06T11:37:10;99631.13;;;32.74;36.94
80137;BME280;69466;55.948;37.484;2023-08-06T11:39:37;99629.94;;;32.59;37.72
80137;BME280;69466;55.948;37.484;2023-08-06T11:42:08;99632.97;;;32.66;37.52
80137;BME280;69466;55.948;37.484;2023-08-06T11:44:35;99622.53;;;32.51;37.64
80137;BME280;69466;55.948;37.484;2023-08-06T11:47:03;99621.72;;;32.50;38.42
80137;BME280;69466;55.948;37.484;2023-08-06T11:52:13;99629.09;;;32.24;37.89
80137;BME280;69466;55.948;37.484;2023-08-06T11:54:40;99635.88;;;32.23;38.26
80137;BME280;69466;55.948;37.484;2023-08-06T11:57:06;99623.84;;;32.22;37.88
80137;BME280;69466;55.948;37.484;2023-08-06T11:59:32;99616.06;;;32.16;38.29
80137;BME280;69466;55.948;37.484;2023-08-06T12:02:02;99628.94;;;32.17;38.86
80137;BME280;69466;55.948;37.484;2023-08-06T12:04:28;99623.13;;;32.09;38.64
80137;BME280;69466;55.948;37.484;2023-08-06T12:06:54;99620.31;;;32.09;38.31
80137;BME280;69466;55.948;37.484;2023-08-06T12:09:20;99619.97;;;32.11;38.82
80137;BME280;69466;55.948;37.484;2023-08-06T12:11:46;99607.72;;;32.03;39.71
80137;BME280;69466;55.948;37.484;2023-08-06T12:14:12;99620.84;;;32.15;39.38
80137;BME280;69466;55.948;37.484;2023-08-06T12:16:39;99618.47;;;32.01;38.82
80137;BME280;69466;55.948;37.484;2023-08-06T12:19:05;99604.78;;;32.00;38.92
80137;BME280;69466;55.948;37.484;2023-08-06T12:21:31;99612.59;;;32.06;39.25
80137;BME280;69466;55.948;37.484;2023-08-06T12:23:57;99602.88;;;32.04;39.39
80137;BME280;69466;55.948;37.484;2023-08-06T12:26:22;99611.97;;;31.97;39.73
80137;BME280;69466;55.948;37.484;2023-08-06T12:28:48;99620.47;;;31.85;40.18
80137;BME280;69466;55.948;37.484;2023-08-06T12:31:15;99599.47;;;31.79;40.09
80137;BME280;69466;55.948;37.484;2023-08-06T12:33:41;99596.09;;;31.74;40.55
80137;BME280;69466;55.948;37.484;2023-08-06T12:36:06;99607.66;;;31.72;40.50
80137;BME280;69466;55.948;37.484;2023-08-06T12:38:32;99595.94;;;31.66;39.88
80137;BME280;69466;55.948;37.484;2023-08-06T12:40:59;99598.59;;;31.63;40.30
80137;BME280;69466;55.948;37.484;2023-08-06T12:43:25;99594.91;;;31.59;40.06
80137;BME280;69466;55.948;37.484;2023-08-06T12:45:51;99585.31;;;31.60;40.52
80137;BME280;69466;55.948;37.484;2023-08-06T12:48:17;99600.59;;;31.62;40.75
80137;BME280;69466;55.948;37.484;2023-08-06T12:50:42;99596.88;;;31.58;40.85
80137;BME280;69466;55.948;37.484;2023-08-06T12:53:08;99592.09;;;31.59;41.44
80137;BME280;69466;55.948;37.484;2023-08-06T12:55:34;99592.19;;;31.62;40.79
80137;BME280;69466;55.948;37.484;2023-08-06T12:58:00;99594.63;;;31.64;40.65
80137;BME280;69466;55.948;37.484;2023-08-06T13:00:26;99595.63;;;31.56;40.28
80137;BME280;69466;55.948;37.484;2023-08-06T13:02:52;99592.69;;;31.52;40.07
80137;BME280;69466;55.948;37.484;2023-08-06T13:05:18;99582.59;;;31.36;40.49